Time;durP1;ratioP1;P1;durP2;ratioP2;P2;SDS_P1;SDS_P2;PMS_P1;PMS_P2;Temp;Humidity;BMP_temperature;BMP_pressure;BME280_temperature;BME280_humidity;BME280_pressure;Samples;Min_cycle;Max_cycle;Signal;HPM_P1;HPM_P2
2021/03/15 00:01:11;;;;;;;19.30;7.70;;;;;;;5.54;74.18;99102.56;5009330;28;20053;-70
2021/03/15 00:03:38;;;;;;;19.40;7.93;;;;;;;5.52;74.78;99102.59;5019215;28;20041;-68
2021/03/15 00:06:05;;;;;;;21.17;6.38;;;;;;;5.40;74.66;99097.88;5006272;28;20430;-72
2021/03/15 00:08:31;;;;;;;19.52;7.30;;;;;;;5.38;75.05;99084.84;5002920;28;20034;-71
2021/03/15 00:10:57;;;;;;;28.60;8.02;;;;;;;5.34;75.35;99088.50;5003747;28;20081;-70
2021/03/15 00:13:23;;;;;;;21.90;7.50;;;;;;;5.30;75.52;99080.84;4998467;28;20026;-72
2021/03/15 00:15:51;;;;;;;26.23;6.90;;;;;;;5.29;76.19;99084.34;4997568;28;20490;-69
2021/03/15 00:18:17;;;;;;;18.85;7.70;;;;;;;5.26;76.53;99074.88;4991982;28;20475;-69
2021/03/15 00:20:43;;;;;;;22.52;7.28;;;;;;;5.26;76.24;99072.25;4973314;28;20034;-69
2021/03/15 00:23:08;;;;;;;19.25;6.40;;;;;;;5.25;75.89;99069.72;4991878;28;20032;-70
2021/03/15 00:25:34;;;;;;;17.27;9.85;;;;;;;5.22;76.69;99065.47;5000059;28;20667;-71
2021/03/15 00:27:59;;;;;;;27.95;9.10;;;;;;;5.23;75.85;99048.88;5000550;28;20034;-70
2021/03/15 00:30:25;;;;;;;16.77;7.15;;;;;;;5.18;76.05;99042.97;5001499;28;20034;-71
2021/03/15 00:32:52;;;;;;;23.33;6.13;;;;;;;5.17;76.21;99036.06;5008499;28;20040;-71
2021/03/15 00:35:18;;;;;;;25.77;8.30;;;;;;;5.15;76.45;99038.72;4992483;28;20060;-70
2021/03/15 00:37:44;;;;;;;18.88;7.28;;;;;;;5.15;76.60;99027.44;5009545;28;20080;-69
2021/03/15 00:40:13;;;;;;;16.60;8.38;;;;;;;5.15;76.79;99028.25;5011019;28;20030;-71
2021/03/15 00:42:41;;;;;;;20.45;7.60;;;;;;;5.18;77.14;99026.44;4994720;28;20029;-70
2021/03/15 00:45:07;;;;;;;21.25;7.25;;;;;;;5.18;76.87;99023.84;5015978;28;20041;-71
2021/03/15 00:47:33;;;;;;;19.70;7.20;;;;;;;5.20;76.82;99025.47;5015786;28;20034;-71
2021/03/15 00:49:59;;;;;;;24.13;7.85;;;;;;;5.20;76.65;99019.41;5015403;28;20030;-71
2021/03/15 00:52:24;;;;;;;16.52;7.05;;;;;;;5.20;76.74;99014.19;5017461;28;20645;-71
2021/03/15 00:54:49;;;;;;;15.95;6.60;;;;;;;5.16;77.02;99023.88;5014113;28;20062;-71
2021/03/15 00:57:17;;;;;;;16.05;6.95;;;;;;;5.16;77.45;99014.28;5014047;28;20080;-71
2021/03/15 00:59:42;;;;;;;17.45;8.65;;;;;;;5.16;77.68;99019.50;5014672;28;20033;-72
2021/03/15 01:02:07;;;;;;;16.27;7.38;;;;;;;5.16;77.92;99023.88;5014526;28;20401;-71
2021/03/15 01:04:33;;;;;;;21.90;7.28;;;;;;;5.15;77.92;99009.13;5014256;28;20497;-72
2021/03/15 01:06:58;;;;;;;15.93;8.00;;;;;;;5.17;78.15;99012.53;5014503;28;20536;-73
2021/03/15 01:09:24;;;;;;;11.05;6.10;;;;;;;5.08;78.10;99000.69;5016903;28;20038;-72
2021/03/15 01:11:49;;;;;;;17.40;8.23;;;;;;;5.08;78.42;99000.69;4998161;28;20041;-73
2021/03/15 01:14:15;;;;;;;15.90;6.57;;;;;;;5.06;78.62;98999.88;4995438;28;20096;-71
2021/03/15 01:16:41;;;;;;;19.52;8.63;;;;;;;5.07;78.28;99005.94;5012928;28;20481;-71
2021/03/15 01:19:06;;;;;;;20.80;8.57;;;;;;;5.07;79.06;98999.00;5012883;28;20069;-71
2021/03/15 01:21:31;;;;;;;15.75;7.25;;;;;;;5.06;79.42;99002.50;5012428;28;20137;-71
2021/03/15 01:23:58;;;;;;;14.80;7.32;;;;;;;5.04;79.18;98993.88;5013043;28;20038;-71
2021/03/15 01:26:24;;;;;;;11.65;7.38;;;;;;;5.04;79.07;98987.78;5013602;28;20516;-72
2021/03/15 01:28:49;;;;;;;14.05;6.13;;;;;;;5.00;79.31;98978.41;5012899;28;20057;-72
2021/03/15 01:31:14;;;;;;;10.10;6.47;;;;;;;5.01;79.71;98982.69;5013245;28;20501;-71
2021/03/15 01:33:40;;;;;;;11.52;4.72;;;;;;;5.01;79.65;98967.03;4996387;28;20026;-71
2021/03/15 01:36:06;;;;;;;10.48;5.05;;;;;;;5.00;79.11;98960.13;5013369;28;20042;-71
2021/03/15 01:38:31;;;;;;;11.27;4.47;;;;;;;4.99;79.40;98958.41;5013390;28;20034;-71
2021/03/15 01:40:57;;;;;;;12.27;4.75;;;;;;;4.95;79.36;98953.31;5013724;28;20092;-71
2021/03/15 01:43:22;;;;;;;6.10;3.67;;;;;;;4.94;78.41;98950.75;5014188;28;20030;-71
2021/03/15 01:45:48;;;;;;;10.95;4.00;;;;;;;4.95;78.76;98949.84;5014295;28;20034;-71
2021/03/15 01:48:14;;;;;;;7.95;4.32;;;;;;;4.93;78.42;98949.91;5014173;28;20053;-71
2021/03/15 01:50:45;;;;;;;7.03;3.38;;;;;;;4.90;78.46;98951.78;5015595;28;20049;-72
2021/03/15 01:53:12;;;;;;;4.50;2.67;;;;;;;4.87;78.90;98944.06;5014430;28;20378;-72
2021/03/15 01:55:37;;;;;;;3.33;2.58;;;;;;;4.87;79.39;98934.47;5012944;28;20034;-71
2021/03/15 01:58:05;;;;;;;5.30;2.60;;;;;;;4.84;78.85;98924.13;5001594;28;20036;-71
2021/03/15 02:00:31;;;;;;;6.70;2.80;;;;;;;4.82;78.88;98933.78;4986930;28;20037;-71
2021/03/15 02:03:01;;;;;;;6.07;3.55;;;;;;;4.80;78.96;98919.97;5017634;28;20033;-71
2021/03/15 02:05:28;;;;;;;4.35;2.47;;;;;;;4.79;79.23;98918.25;5014531;28;20494;-70
2021/03/15 02:07:54;;;;;;;5.63;2.22;;;;;;;4.79;79.82;98920.03;5009890;28;20065;-71
2021/03/15 02:10:20;;;;;;;7.35;2.92;;;;;;;4.82;79.49;98914.66;5014855;28;20040;-70
2021/03/15 02:13:04;;;;;;;4.38;2.90;;;;;;;4.84;80.10;98908.47;5014377;28;20026;-71
2021/03/15 02:16:06;;;;;;;5.25;2.40;;;;;;;4.85;79.61;98904.09;5014000;28;20041;-72
2021/03/15 02:19:06;;;;;;;4.25;2.30;;;;;;;4.86;79.99;98897.97;5013610;28;20038;-70
2021/03/15 02:21:55;;;;;;;4.43;2.47;;;;;;;4.85;80.15;98888.41;5011777;28;20489;-71
2021/03/15 02:24:30;;;;;;;4.53;2.53;;;;;;;4.87;80.37;98879.66;5012442;28;20033;-71
2021/03/15 02:27:29;;;;;;;5.03;2.55;;;;;;;4.93;80.00;98878.53;5012777;28;20037;-71
2021/03/15 02:30:13;;;;;;;6.53;2.60;;;;;;;4.96;79.92;98878.41;5013458;28;20029;-70
2021/03/15 02:33:15;;;;;;;5.68;2.80;;;;;;;5.02;80.49;98874.69;5010008;28;20494;-70
2021/03/15 02:35:43;;;;;;;4.90;3.40;;;;;;;5.03;80.56;98872.00;5012179;28;20046;-71
2021/03/15 02:38:10;;;;;;;4.80;3.05;;;;;;;5.05;80.82;98875.41;5012822;28;20125;-70
2021/03/15 02:40:48;;;;;;;6.85;4.13;;;;;;;5.08;80.37;98866.59;5012586;28;20034;-71
2021/03/15 02:43:26;;;;;;;8.35;4.85;;;;;;;5.11;80.88;98863.84;5013507;28;20362;-71
2021/03/15 02:45:57;;;;;;;8.05;4.38;;;;;;;5.11;80.63;98863.84;5014707;28;20132;-72
2021/03/15 02:48:25;;;;;;;7.32;4.20;;;;;;;5.11;80.92;98856.03;5012555;28;20038;-72
2021/03/15 02:50:52;;;;;;;8.63;5.18;;;;;;;5.17;80.95;98855.78;5013433;28;20025;-70
2021/03/15 02:53:19;;;;;;;6.60;4.38;;;;;;;5.19;80.87;98861.75;5013551;28;20080;-71
2021/03/15 02:55:55;;;;;;;7.90;4.15;;;;;;;5.26;80.90;98859.75;5013596;28;20030;-69
2021/03/15 02:58:22;;;;;;;6.32;4.82;;;;;;;5.27;80.60;98851.84;5000217;28;20034;-70
2021/03/15 03:00:48;;;;;;;8.85;4.78;;;;;;;5.29;80.82;98857.88;5023072;28;20101;-72
2021/03/15 03:03:18;;;;;;;12.57;5.38;;;;;;;5.35;81.24;98854.13;5009272;28;20117;-72
2021/03/15 03:05:45;;;;;;;10.68;4.95;;;;;;;5.37;81.43;98854.94;5002541;28;20119;-72
2021/03/15 03:08:11;;;;;;;10.75;5.15;;;;;;;5.40;81.12;98856.56;5024949;28;20052;-72
2021/03/15 03:10:37;;;;;;;8.20;5.25;;;;;;;5.46;81.19;98845.81;5018240;28;20406;-71
2021/03/15 03:13:03;;;;;;;10.50;6.07;;;;;;;5.47;81.49;98860.59;5011375;28;20092;-72
2021/03/15 03:15:31;;;;;;;6.80;5.03;;;;;;;5.52;81.60;98856.03;5012630;28;20045;-71
2021/03/15 03:18:01;;;;;;;8.25;4.88;;;;;;;5.58;81.36;98858.34;5012003;28;20503;-71
2021/03/15 03:20:29;;;;;;;8.73;6.35;;;;;;;5.57;81.35;98846.22;5013061;28;20041;-71
2021/03/15 03:22:59;;;;;;;8.55;5.00;;;;;;;5.60;80.94;98848.69;5011099;28;20034;-72
2021/03/15 03:25:26;;;;;;;8.55;4.40;;;;;;;5.64;81.38;98862.50;5010853;28;20040;-71
2021/03/15 03:27:56;;;;;;;11.52;6.53;;;;;;;5.67;81.08;98865.81;5012302;28;20052;-71
2021/03/15 03:30:25;;;;;;;8.27;5.18;;;;;;;5.72;81.51;98861.22;5012447;28;20030;-72
2021/03/15 03:32:51;;;;;;;9.40;4.70;;;;;;;5.74;81.12;98869.00;5012422;28;20030;-71
2021/03/15 03:35:17;;;;;;;7.60;4.97;;;;;;;5.75;81.40;98871.53;5010942;28;20456;-71
2021/03/15 03:37:42;;;;;;;7.30;4.65;;;;;;;5.78;80.92;98873.16;4994676;28;21380;-71
2021/03/15 03:40:08;;;;;;;9.13;5.40;;;;;;;5.78;80.89;98876.66;5011675;28;20037;-70
2021/03/15 03:42:33;;;;;;;9.23;6.07;;;;;;;5.80;80.96;98869.56;5010671;28;20104;-71
2021/03/15 03:44:59;;;;;;;8.68;5.80;;;;;;;5.77;81.37;98874.94;5010465;28;20381;-71
2021/03/15 03:47:24;;;;;;;11.82;7.07;;;;;;;5.78;81.57;98879.28;5010632;28;20482;-71
2021/03/15 03:49:49;;;;;;;9.27;6.75;;;;;;;5.77;81.58;98882.78;5011025;28;20038;-72
2021/03/15 03:52:19;;;;;;;12.70;6.40;;;;;;;5.80;81.30;98885.25;4992509;28;20026;-72
2021/03/15 03:54:49;;;;;;;16.55;7.43;;;;;;;5.79;80.93;98883.56;5010664;28;20041;-71
2021/03/15 03:57:23;;;;;;;11.25;7.88;;;;;;;5.79;80.95;98886.19;5010369;28;20042;-69
2021/03/15 03:59:50;;;;;;;10.48;7.38;;;;;;;5.85;80.50;98892.06;5010462;28;20050;-70
2021/03/15 04:02:22;;;;;;;13.75;8.60;;;;;;;5.87;80.21;98890.22;5009620;28;20076;-71
2021/03/15 04:04:51;;;;;;;15.45;9.75;;;;;;;5.89;80.29;98885.78;4999779;28;20117;-70
2021/03/15 04:07:21;;;;;;;11.25;8.80;;;;;;;5.88;80.17;98905.88;4990150;28;20042;-70
2021/03/15 04:09:52;;;;;;;12.88;9.60;;;;;;;5.85;79.88;98897.28;4990423;28;20057;-71
2021/03/15 04:12:22;;;;;;;12.02;8.43;;;;;;;5.86;80.21;98896.34;4991206;28;20113;-71
2021/03/15 04:14:52;;;;;;;16.52;9.43;;;;;;;5.87;80.27;98898.91;4993386;28;20062;-72
2021/03/15 04:17:24;;;;;;;13.65;9.30;;;;;;;5.88;80.04;98905.00;4991725;28;20122;-71
2021/03/15 04:19:53;;;;;;;12.05;8.60;;;;;;;5.87;79.55;98904.16;4992138;28;20023;-70
2021/03/15 04:22:22;;;;;;;12.68;8.27;;;;;;;5.87;79.15;98906.75;4991946;28;20042;-69
2021/03/15 04:24:49;;;;;;;13.88;9.60;;;;;;;5.91;79.43;98907.50;4992005;28;20061;-70
2021/03/15 04:27:15;;;;;;;9.57;7.95;;;;;;;5.91;79.33;98907.50;4991867;28;20205;-70
2021/03/15 04:29:41;;;;;;;14.95;9.32;;;;;;;5.93;79.63;98914.34;4992036;28;20486;-69
2021/03/15 04:32:08;;;;;;;11.23;8.07;;;;;;;5.92;79.87;98917.88;4991006;28;20038;-70
2021/03/15 04:34:35;;;;;;;19.88;10.38;;;;;;;5.96;79.34;98913.41;4992836;28;20497;-70
2021/03/15 04:37:03;;;;;;;12.80;8.80;;;;;;;5.97;79.11;98923.78;4990196;28;20057;-71
2021/03/15 04:39:30;;;;;;;15.35;9.73;;;;;;;5.92;79.37;98920.50;4990956;28;20043;-71
2021/03/15 04:41:57;;;;;;;12.10;7.90;;;;;;;5.91;79.39;98931.88;4990375;28;20054;-71
2021/03/15 04:44:24;;;;;;;11.77;7.55;;;;;;;5.91;79.14;98939.72;4991020;28;20042;-71
2021/03/15 04:46:52;;;;;;;12.00;8.52;;;;;;;5.89;79.01;98938.94;4990704;28;20034;-71
2021/03/15 04:49:17;;;;;;;9.15;6.70;;;;;;;5.87;79.53;98934.69;4991543;28;20034;-71
2021/03/15 04:51:44;;;;;;;12.80;8.38;;;;;;;5.83;79.03;98936.59;4990674;28;20110;-70
2021/03/15 04:54:10;;;;;;;12.23;7.45;;;;;;;5.82;79.46;98937.50;4990926;28;20034;-71
2021/03/15 04:56:37;;;;;;;10.50;7.20;;;;;;;5.80;79.40;98942.78;4991114;28;20035;-70
2021/03/15 04:59:04;;;;;;;12.77;7.65;;;;;;;5.77;79.77;98942.09;4990888;28;20037;-71
2021/03/15 05:01:31;;;;;;;12.18;8.15;;;;;;;5.72;80.11;98944.91;4990344;28;20125;-71
2021/03/15 05:03:58;;;;;;;11.02;8.27;;;;;;;5.71;79.35;98948.44;4990378;28;20035;-71
2021/03/15 05:06:24;;;;;;;11.43;8.95;;;;;;;5.72;79.76;98959.75;4991445;28;20405;-71
2021/03/15 05:08:53;;;;;;;9.02;7.22;;;;;;;5.74;79.71;98960.53;4990164;28;20077;-72
2021/03/15 05:11:20;;;;;;;12.50;7.93;;;;;;;5.78;79.82;98960.34;4990038;28;20494;-71
2021/03/15 05:13:46;;;;;;;9.50;7.13;;;;;;;5.79;79.83;98966.41;4990082;28;20042;-71
2021/03/15 05:16:12;;;;;;;11.43;7.88;;;;;;;5.78;79.84;98973.41;4989886;28;20093;-71
2021/03/15 05:18:38;;;;;;;10.90;8.02;;;;;;;5.75;79.98;98968.28;4994152;28;20116;-72
2021/03/15 05:21:04;;;;;;;12.45;8.90;;;;;;;5.73;79.30;98974.50;5012250;28;20482;-71
2021/03/15 05:23:32;;;;;;;12.23;9.05;;;;;;;5.73;79.38;98988.44;5020799;28;20042;-72
2021/03/15 05:25:58;;;;;;;11.55;7.93;;;;;;;5.71;79.24;98989.41;5029010;28;20075;-71
2021/03/15 05:28:24;;;;;;;10.77;8.18;;;;;;;5.64;79.07;98986.22;5029269;28;20471;-71
2021/03/15 05:30:51;;;;;;;11.20;8.20;;;;;;;5.64;79.17;98985.38;5031465;28;20040;-71
2021/03/15 05:33:19;;;;;;;18.05;7.95;;;;;;;5.67;79.89;98995.69;5032483;28;20029;-71
2021/03/15 05:35:47;;;;;;;11.20;7.95;;;;;;;5.73;79.95;98998.88;5031880;28;20042;-71
2021/03/15 05:38:13;;;;;;;13.70;10.10;;;;;;;5.68;79.80;99006.09;5032144;28;20025;-71
2021/03/15 05:40:41;;;;;;;11.25;8.80;;;;;;;5.70;79.69;99013.88;5031596;28;20036;-71
2021/03/15 05:43:25;;;;;;;13.07;9.85;;;;;;;5.66;78.83;99017.53;5032063;28;20758;-70
2021/03/15 05:46:27;;;;;;;13.68;9.50;;;;;;;5.61;78.99;99017.69;5032353;28;20037;-71
2021/03/15 05:49:30;;;;;;;13.60;10.40;;;;;;;5.55;78.61;99020.59;5032325;28;20037;-71
2021/03/15 05:52:13;;;;;;;10.38;8.90;;;;;;;5.52;78.58;99033.78;5031942;28;20033;-70
2021/03/15 05:55:13;;;;;;;12.05;8.82;;;;;;;5.49;78.38;99039.13;5031720;28;20044;-70
2021/03/15 05:58:00;;;;;;;13.48;9.65;;;;;;;5.46;78.10;99055.78;5032233;28;20048;-73
2021/03/15 06:00:35;;;;;;;13.23;10.10;;;;;;;5.46;78.50;99050.56;5032195;28;20121;-71
2021/03/15 06:03:50;;;;;;;13.05;10.05;;;;;;;5.49;77.91;99063.53;5032857;28;20060;-69
2021/03/15 06:06:22;;;;;;;12.43;9.15;;;;;;;5.47;78.39;99065.34;4987758;28;20029;-71
2021/03/15 06:08:55;;;;;;;8.48;6.30;;;;;;;5.46;76.74;99074.09;5012380;28;20057;-71
2021/03/15 06:11:26;;;;;;;11.00;8.45;;;;;;;5.45;76.47;99080.22;5012483;28;20041;-71
2021/03/15 06:13:53;;;;;;;9.30;7.10;;;;;;;5.47;76.96;99088.88;5012872;28;20038;-71
2021/03/15 06:16:19;;;;;;;10.02;7.45;;;;;;;5.43;76.95;99082.06;5013196;28;20109;-71
2021/03/15 06:18:46;;;;;;;10.15;7.68;;;;;;;5.38;77.49;99097.91;5014258;28;20140;-70
2021/03/15 06:21:13;;;;;;;10.85;7.47;;;;;;;5.39;77.65;99098.78;5020679;28;20090;-70
2021/03/15 06:23:38;;;;;;;9.20;7.40;;;;;;;5.43;77.51;99102.13;5019090;28;20088;-70
2021/03/15 06:26:04;;;;;;;11.73;7.85;;;;;;;5.40;76.46;99102.25;4997183;28;20030;-71
2021/03/15 06:28:30;;;;;;;7.63;5.65;;;;;;;5.35;75.54;99112.88;5012402;28;20034;-71
2021/03/15 06:30:56;;;;;;;12.38;6.13;;;;;;;5.35;75.54;99102.41;5012814;28;20672;-71
2021/03/15 06:33:22;;;;;;;6.50;5.28;;;;;;;5.39;75.77;99106.63;5014557;28;20032;-72
2021/03/15 06:36:06;;;;;;;7.57;6.22;;;;;;;5.42;75.34;99113.50;5019086;28;20050;-71
2021/03/15 06:38:33;;;;;;;8.38;5.70;;;;;;;5.42;74.88;99118.72;4995199;28;20060;-71
2021/03/15 06:41:01;;;;;;;8.65;6.10;;;;;;;5.41;75.16;99127.47;4994147;28;20030;-71
2021/03/15 06:43:27;;;;;;;6.85;5.15;;;;;;;5.46;75.42;99128.97;4995101;28;20061;-70
2021/03/15 06:45:54;;;;;;;9.40;5.63;;;;;;;5.48;75.85;99136.78;5003033;28;20035;-71
2021/03/15 06:48:20;;;;;;;7.70;5.22;;;;;;;5.51;75.77;99139.25;4995397;28;20037;-71
2021/03/15 06:50:47;;;;;;;9.38;6.65;;;;;;;5.54;75.14;99141.78;5006944;28;20034;-71
2021/03/15 06:53:12;;;;;;;10.85;7.05;;;;;;;5.54;75.17;99147.84;5012123;28;20033;-71
2021/03/15 06:55:37;;;;;;;8.02;6.30;;;;;;;5.51;74.51;99149.72;5013020;28;20104;-71
2021/03/15 06:58:18;;;;;;;11.43;7.65;;;;;;;5.50;75.24;99161.94;5014357;28;20041;-71
2021/03/15 07:00:44;;;;;;;10.85;8.68;;;;;;;5.50;75.33;99150.63;5012951;28;20034;-70
2021/03/15 07:03:09;;;;;;;11.73;7.97;;;;;;;5.52;75.33;99164.50;4996997;28;20049;-70
2021/03/15 07:05:35;;;;;;;11.43;8.30;;;;;;;5.43;75.41;99173.53;4999003;28;20056;-70
2021/03/15 07:08:02;;;;;;;9.65;7.63;;;;;;;5.42;75.17;99174.47;5015390;28;20568;-71
2021/03/15 07:10:30;;;;;;;9.27;7.85;;;;;;;5.42;75.44;99179.69;4997436;28;20052;-71
2021/03/15 07:13:13;;;;;;;9.57;7.15;;;;;;;5.46;74.95;99189.09;4994781;28;20034;-71
2021/03/15 07:15:40;;;;;;;14.82;7.20;;;;;;;5.47;74.37;99190.81;4994438;28;20068;-72
2021/03/15 07:18:17;;;;;;;14.63;7.53;;;;;;;5.45;74.24;99186.56;4997344;28;20042;-70
2021/03/15 07:20:52;;;;;;;10.40;7.63;;;;;;;5.50;73.99;99192.47;4996835;28;20060;-72
2021/03/15 07:23:42;;;;;;;9.35;6.72;;;;;;;5.50;73.61;99197.69;4996414;28;20058;-71
2021/03/15 07:26:28;;;;;;;9.27;6.97;;;;;;;5.57;73.38;99202.63;4994211;28;20122;-71
2021/03/15 07:28:54;;;;;;;9.27;6.45;;;;;;;5.54;73.41;99204.53;4996396;28;20379;-70
2021/03/15 07:31:21;;;;;;;17.55;7.72;;;;;;;5.56;73.68;99206.16;4994335;28;20030;-71
2021/03/15 07:33:55;;;;;;;11.02;8.02;;;;;;;5.58;73.40;99209.56;4993315;28;20107;-71
2021/03/15 07:36:25;;;;;;;17.75;8.75;;;;;;;5.61;73.42;99208.56;4991459;28;20050;-71
2021/03/15 07:38:51;;;;;;;13.55;7.38;;;;;;;5.59;73.06;99216.50;4991144;28;20053;-71
2021/03/15 07:41:18;;;;;;;9.93;7.95;;;;;;;5.64;73.46;99213.72;4990438;28;20467;-70
2021/03/15 07:43:44;;;;;;;13.45;8.50;;;;;;;5.69;73.42;99222.22;4990671;28;20041;-70
2021/03/15 07:46:27;;;;;;;7.53;6.22;;;;;;;5.82;72.84;99233.91;4990535;28;20034;-71
2021/03/15 07:48:54;;;;;;;14.45;7.68;;;;;;;5.87;72.64;99231.13;4990467;28;20049;-70
2021/03/15 07:51:31;;;;;;;9.95;6.65;;;;;;;5.97;71.59;99236.88;4990809;28;20027;-72
2021/03/15 07:54:10;;;;;;;12.02;6.53;;;;;;;6.10;71.46;99240.72;4991341;28;20030;-70
2021/03/15 07:56:36;;;;;;;12.20;7.50;;;;;;;6.19;71.58;99245.59;4991322;28;20038;-70
2021/03/15 07:59:03;;;;;;;8.93;6.00;;;;;;;6.13;72.59;99243.22;4991252;28;20030;-71
2021/03/15 08:01:29;;;;;;;8.88;5.60;;;;;;;6.26;71.98;99255.81;4991377;28;20123;-70
2021/03/15 08:03:55;;;;;;;8.32;5.55;;;;;;;6.39;71.46;99251.78;4991661;28;20054;-71
2021/03/15 08:09:44;;;;;;;8.27;5.45;;;;;;;6.78;70.57;99254.50;4988535;28;20044;-72
2021/03/15 08:12:10;;;;;;;22.67;7.38;;;;;;;6.76;70.82;99263.34;4991904;28;20031;-72
2021/03/15 08:14:38;;;;;;;9.30;5.72;;;;;;;6.72;71.22;99267.00;5006458;28;20034;-70
2021/03/15 08:17:07;;;;;;;16.52;5.93;;;;;;;7.31;69.22;99263.63;5010683;28;20042;-72
2021/03/15 08:26:16;;;;;;;9.82;6.18;;;;;;;7.15;69.28;99284.38;5024772;28;20091;-71
2021/03/15 08:28:43;;;;;;;13.98;6.93;;;;;;;7.13;69.87;99274.88;5018026;28;20041;-71
2021/03/15 08:31:08;;;;;;;12.75;6.72;;;;;;;7.08;69.25;99288.19;5029569;28;20034;-71
2021/03/15 08:33:34;;;;;;;9.25;7.00;;;;;;;7.10;69.63;99287.22;5006746;28;20041;-71
2021/03/15 08:36:00;;;;;;;9.38;7.25;;;;;;;7.07;70.06;99287.34;5009229;28;20065;-72
2021/03/15 08:38:35;;;;;;;9.70;7.03;;;;;;;7.28;69.30;99284.69;5011091;28;20041;-72
2021/03/15 08:41:07;;;;;;;14.13;7.65;;;;;;;7.15;69.41;99287.00;5010272;28;20038;-70
2021/03/15 08:43:44;;;;;;;10.73;7.30;;;;;;;7.06;69.78;99292.63;4993687;28;20033;-70
2021/03/15 12:44:34;;;;;;;7.85;2.70;;;;;;;8.69;59.36;99422.69;5011071;28;20040;-70
2021/03/15 12:46:59;;;;;;;10.27;2.88;;;;;;;8.69;58.56;99419.19;5013153;28;20156;-70
2021/03/15 12:56:34;;;;;;;6.88;2.17;;;;;;;9.05;57.06;99424.47;5018134;28;20088;-69
2021/03/15 12:58:59;;;;;;;6.72;2.80;;;;;;;9.22;56.77;99428.91;5012799;28;20034;-69
2021/03/15 13:01:26;;;;;;;8.65;2.70;;;;;;;9.49;55.06;99428.47;5013007;28;20537;-69
2021/03/15 13:03:55;;;;;;;4.68;2.22;;;;;;;9.54;54.63;99429.06;5012170;28;20038;-70
2021/03/15 13:06:21;;;;;;;8.05;2.47;;;;;;;9.50;54.39;99427.50;5017023;28;20030;-69
2021/03/15 13:08:46;;;;;;;9.63;3.13;;;;;;;9.24;55.18;99434.94;5013848;28;20397;-71
2021/03/15 13:11:13;;;;;;;5.85;2.80;;;;;;;9.34;54.65;99437.97;5014232;28;20033;-70
2021/03/15 13:13:38;;;;;;;7.60;3.03;;;;;;;9.49;54.04;99441.63;5013312;28;20108;-69
2021/03/15 13:16:04;;;;;;;8.50;5.00;;;;;;;9.44;53.66;99437.41;5013171;28;20493;-71
2021/03/15 13:18:30;;;;;;;9.90;2.40;;;;;;;9.26;53.51;99448.03;5011826;28;20046;-70
2021/03/15 13:20:56;;;;;;;5.68;2.58;;;;;;;8.85;55.38;99474.53;5012818;28;20064;-69
2021/03/15 13:23:21;;;;;;;4.47;1.73;;;;;;;7.88;59.20;99489.38;5013015;28;20685;-69
2021/03/15 13:25:47;;;;;;;6.68;1.83;;;;;;;7.23;62.26;99499.03;5012833;28;20062;-69
2021/03/15 13:28:12;;;;;;;10.25;2.33;;;;;;;6.91;60.46;99484.59;5012642;28;20136;-69
2021/03/15 13:30:38;;;;;;;7.40;2.20;;;;;;;6.98;62.45;99484.28;5012259;28;20121;-69
2021/03/15 13:33:03;;;;;;;5.75;2.63;;;;;;;7.02;63.36;99488.50;5013444;28;20143;-69
2021/03/15 13:35:29;;;;;;;4.30;1.95;;;;;;;7.17;63.73;99484.41;5012802;28;20511;-69
2021/03/15 13:37:55;;;;;;;6.43;3.47;;;;;;;7.32;64.23;99491.66;5012735;28;20034;-69
2021/03/15 13:40:20;;;;;;;7.28;2.60;;;;;;;7.28;63.54;99484.81;5012323;28;20056;-69
2021/03/15 13:42:46;;;;;;;15.05;2.53;;;;;;;7.44;63.89;99485.06;5012338;28;20041;-69
2021/03/15 13:45:12;;;;;;;6.60;2.40;;;;;;;7.71;64.04;99484.84;5012321;28;20484;-69
2021/03/15 13:47:37;;;;;;;10.55;3.70;;;;;;;7.86;63.78;99485.94;5012786;28;20058;-70
2021/03/15 13:50:04;;;;;;;9.63;2.72;;;;;;;8.03;63.02;99482.59;5011795;28;20026;-69
2021/03/15 13:52:29;;;;;;;9.50;2.10;;;;;;;8.17;62.95;99486.31;5012488;28;20044;-70
2021/03/15 13:54:55;;;;;;;8.57;4.00;;;;;;;8.18;62.70;99490.63;5011095;28;20038;-69
2021/03/15 13:57:20;;;;;;;6.13;2.58;;;;;;;8.15;62.44;99500.44;5010197;28;20030;-69
2021/03/15 13:59:45;;;;;;;7.47;3.20;;;;;;;8.02;63.15;99507.13;5012783;28;20103;-70
2021/03/15 14:02:11;;;;;;;7.75;2.15;;;;;;;7.85;63.63;99511.34;5012150;28;20430;-70
2021/03/15 14:04:36;;;;;;;4.90;2.30;;;;;;;7.82;62.39;99505.34;5013895;28;20030;-70
2021/03/15 14:07:02;;;;;;;8.35;2.40;;;;;;;7.82;61.50;99506.19;5013483;28;20125;-70
2021/03/15 14:09:27;;;;;;;9.57;3.17;;;;;;;7.83;60.63;99500.06;5013815;28;20046;-70
2021/03/15 14:11:52;;;;;;;3.63;1.77;;;;;;;8.05;59.97;99499.09;5012517;28;20501;-69
2021/03/15 14:14:18;;;;;;;3.92;2.28;;;;;;;8.18;58.46;99498.50;5006918;28;20515;-70
2021/03/15 14:16:46;;;;;;;4.20;1.75;;;;;;;8.22;58.21;99491.38;5001848;28;20563;-70
2021/03/15 14:19:12;;;;;;;6.65;2.58;;;;;;;8.19;58.46;99502.00;5001637;28;20580;-70
2021/03/15 14:21:37;;;;;;;7.47;2.33;;;;;;;8.17;59.74;99509.94;4995370;28;20137;-70
2021/03/15 14:24:03;;;;;;;15.30;2.67;;;;;;;8.14;58.49;99517.94;4989384;28;20042;-71
2021/03/15 14:26:29;;;;;;;6.65;1.92;;;;;;;8.28;58.60;99511.25;4988477;28;20058;-70
2021/03/15 14:28:54;;;;;;;7.13;2.35;;;;;;;8.34;58.69;99511.84;4998254;28;20046;-70
2021/03/15 14:31:19;;;;;;;7.93;2.88;;;;;;;8.41;58.97;99506.31;5005877;28;20119;-70
2021/03/15 14:33:45;;;;;;;13.15;3.25;;;;;;;8.41;58.29;99512.44;4997980;28;20049;-70
2021/03/15 14:36:10;;;;;;;4.85;2.67;;;;;;;8.45;58.36;99507.91;5008214;28;20042;-70
2021/03/15 14:38:35;;;;;;;12.52;3.38;;;;;;;8.51;58.34;99505.84;4990083;28;20440;-69
2021/03/15 14:41:04;;;;;;;10.60;2.55;;;;;;;8.47;56.22;99516.56;5007266;28;20117;-71
2021/03/15 14:43:29;;;;;;;11.85;3.22;;;;;;;8.60;56.03;99510.69;5008804;28;20155;-70
2021/03/15 14:45:55;;;;;;;9.95;2.50;;;;;;;8.56;56.81;99511.72;5007340;28;20195;-70
2021/03/15 14:48:21;;;;;;;12.75;3.13;;;;;;;8.58;56.12;99515.16;5007492;28;20425;-71
2021/03/15 14:50:49;;;;;;;5.47;2.67;;;;;;;8.46;55.82;99514.84;5006482;28;20463;-71
2021/03/15 14:53:14;;;;;;;12.40;3.22;;;;;;;8.47;55.31;99519.19;5007707;28;20045;-72
2021/03/15 14:55:40;;;;;;;9.15;3.22;;;;;;;8.51;54.83;99518.13;5006002;28;20045;-70
2021/03/15 14:58:06;;;;;;;5.25;2.67;;;;;;;8.52;53.52;99519.84;5004912;28;20033;-70
2021/03/15 15:00:32;;;;;;;14.38;3.50;;;;;;;8.52;53.28;99525.09;5008577;28;20038;-71
2021/03/15 15:02:57;;;;;;;6.10;3.10;;;;;;;8.52;50.52;99531.19;5007760;28;20098;-70
2021/03/15 15:05:23;;;;;;;5.22;2.13;;;;;;;8.55;51.39;99528.44;5007783;28;20493;-69
2021/03/15 15:07:50;;;;;;;7.93;3.22;;;;;;;8.66;49.59;99534.97;5005053;28;20541;-69
2021/03/15 15:10:16;;;;;;;3.58;2.63;;;;;;;8.79;50.19;99541.38;5008552;28;20385;-71
2021/03/15 15:12:42;;;;;;;10.38;3.22;;;;;;;8.73;49.86;99536.41;5007879;28;20038;-70
2021/03/15 15:15:08;;;;;;;10.55;3.05;;;;;;;8.62;48.83;99547.41;5006000;28;20057;-71
2021/03/15 15:17:33;;;;;;;7.60;4.03;;;;;;;8.57;49.37;99544.13;5008604;28;20531;-70
2021/03/15 15:19:59;;;;;;;5.93;2.00;;;;;;;8.49;49.09;99549.75;5007122;28;20072;-70
2021/03/15 15:22:24;;;;;;;7.47;2.53;;;;;;;8.43;48.80;99551.78;5007661;28;20057;-72
2021/03/15 15:24:49;;;;;;;8.52;2.78;;;;;;;8.39;49.81;99561.50;5004374;28;20137;-72
2021/03/15 15:27:15;;;;;;;6.63;2.00;;;;;;;8.31;49.18;99561.00;5005667;28;20675;-72
2021/03/15 15:29:40;;;;;;;10.52;2.72;;;;;;;8.30;50.49;99562.78;5002883;28;20042;-70
2021/03/15 15:32:06;;;;;;;4.47;1.83;;;;;;;8.27;50.54;99564.69;5005683;28;20049;-69
2021/03/15 15:34:31;;;;;;;11.32;3.03;;;;;;;8.17;51.49;99578.22;4977037;28;20034;-70
2021/03/15 15:36:57;;;;;;;13.82;3.35;;;;;;;8.14;51.37;99574.84;4994995;28;20038;-70
2021/03/15 15:39:22;;;;;;;9.25;2.78;;;;;;;8.16;51.87;99576.50;5004485;28;20042;-70
2021/03/15 15:41:47;;;;;;;14.52;3.13;;;;;;;8.18;51.94;99576.44;4983146;28;20118;-70
2021/03/15 15:44:13;;;;;;;5.65;2.15;;;;;;;8.13;51.80;99586.28;4990822;28;20042;-71
2021/03/15 15:46:38;;;;;;;8.05;3.60;;;;;;;8.21;51.30;99586.81;5001075;28;20046;-68
2021/03/15 15:49:03;;;;;;;12.43;3.45;;;;;;;8.14;50.22;99587.97;5010728;28;20049;-70
2021/03/15 15:51:29;;;;;;;6.68;2.45;;;;;;;8.12;50.82;99584.56;5026333;28;20124;-71
2021/03/15 15:53:54;;;;;;;10.90;2.85;;;;;;;8.10;51.61;99592.53;5026666;28;20064;-70
2021/03/15 15:56:20;;;;;;;6.88;2.28;;;;;;;8.14;51.76;99590.59;5016480;28;20505;-71
2021/03/15 15:58:46;;;;;;;12.85;3.20;;;;;;;8.12;52.32;99590.69;5011607;28;20492;-71